• Join FlightAware (Why Join?)
  • Login
  • US Flag 
05:15AM EDT


 

Airport Tracker/Info


-or-


 

Live Flight TrackerFlight Track Log ✈ EGF3005 ✈ 14-Jul-2013 ✈ KORD - KALO

Flight Track Log - Related Links

Times and Time Zones

All times are in EDT time to prevent confusion due to time zone crossing. See the EGF3005 flight status page for this flight to view local times or setup timezone preferences in your user account.

Time Position Orientation Groundspeed Altitude Reporting Facility
EDT Latitude Longitude Course Direction KTS MPH feet Rate Location/Type
09:34PM 42.0167 -87.9667 270° West 209 241 2,900  Level Chicago TRACON
09:35PM 42.0667 -88.0000 334° Northwest 236 272 6,000 3,000 Climbing Chicago TRACON
09:36PM 41.9667 -88.3066 270° West  Level FlightAware Approximate
09:36PM 42.1167 -88.0500 323° Northwest 238 274 8,600  Level Chicago TRACON
09:37PM 41.9667 -88.4422 270° West  Level FlightAware Approximate
09:37PM 42.1233 -88.1553 275° West 272 313 9,800  Level Chicago Center
09:38PM 41.9668 -88.5777 270° West  Level FlightAware Approximate
09:38PM 42.1247 -88.2744 271° West 317 365 10,700  Level Chicago Center
09:39PM 41.9667 -88.6980 270° West  Level FlightAware Approximate
09:39PM 42.1183 -88.4075 266° West 354 407 11,600  Level Chicago Center
09:40PM 42.1014 -88.5433 261° West 369 425 12,800 1,140 Climbing Chicago Center
09:41PM 42.0853 -88.7119 263° West 383 441 14,000 1,020 Climbing Chicago Center
09:42PM 42.1064 -88.8517 282° West 397 457 15,000 900 Climbing Chicago Center
09:43PM 42.1281 -88.9975 281° West 396 456 15,900 900 Climbing Chicago Center
09:44PM 42.1492 -89.1456 281° West 400 460 16,900 900 Climbing Chicago Center
09:45PM 42.1733 -89.3164 281° West 399 459 17,800 900 Climbing Chicago Center
09:46PM 42.1936 -89.4650 280° West 401 461 18,800 960 Climbing Chicago Center
09:47PM 42.2158 -89.6192 281° West 415 478 19,800 960 Climbing Chicago Center
09:48PM 42.2367 -89.7708 281° West 413 475 20,800 780 Climbing Chicago Center
09:49PM 42.2561 -89.9194 280° West 417 480 21,500 540 Climbing Chicago Center
09:50PM 42.2769 -90.0758 280° West 426 490 22,000 240 Climbing Chicago Center
09:51PM 42.3025 -90.2694 280° West 440 506 22,000  Level Chicago Center
09:52PM 42.3231 -90.4353 280° West 449 517 22,000  Level Chicago Center
09:53PM 42.3436 -90.6008 280° West 444 511 22,000  Level Chicago Center
09:54PM 42.3650 -90.7631 280° West 448 516 22,000  Level Chicago Center
09:55PM 42.3850 -90.9278 279° West 448 516 22,000 -900 Level Chicago Center
09:56PM 42.4058 -91.0914 280° West 445 512 20,200 -2,880 Descending Chicago Center
09:57PM 42.4281 -91.2814 279° West 429 494 16,200 -3,540 Descending Chicago Center
09:58PM 42.4450 -91.4306 279° West 409 471 13,000 -2,520 Descending Chicago Center
09:59PM 42.4633 -91.5714 280° West 387 445 11,100 -1,500 Descending Chicago Center
10:00PM 42.4775 -91.6997 279° West 355 409 10,000 -1,260 Descending Chicago Center
10:01PM 42.4903 -91.8069 279° West 299 344 8,500 -1,620 Descending Chicago Center
10:02PM 42.5019 -91.9083 279° West 285 328 6,800 -1,320 Descending Chicago Center
10:03PM 42.5133 -92.0100 279° West 276 318 5,800 -1,020 Descending Chicago Center
10:04PM 42.5239 -92.1125 278° West 275 316 4,800 -900 Descending Chicago Center
10:05PM 42.5369 -92.2339 278° West 275 316 4,000 -1,020 Descending Chicago Center
10:06PM 42.5608 -92.3150 292° West 253 291 2,700 -720 Descending Chicago Center
10:07PM 42.5969 -92.3817 306° West 236 272 2,600 -540 Descending Chicago Center
10:08PM 42.6014 -92.4319 277° West 189 217 1,700 -780 Descending Chicago Center
10:09PM 42.5717 -92.4225 167° South 160 184 1,100 -360 Descending Chicago Center
10:11PM 42.5542 -92.3839 122° Southeast 152 175 1,000 -120 Descending Chicago Center